Time;durP1;ratioP1;P1;durP2;ratioP2;P2;SDS_P1;SDS_P2;PMS_P1;PMS_P2;Temp;Humidity;BMP_temperature;BMP_pressure;BME280_temperature;BME280_humidity;BME280_pressure;Samples;Min_cycle;Max_cycle;Signal;HPM_P1;HPM_P2
2022/04/26 03:36:06;;;;;;;26.27;18.52;;;;;;;11.68;100.00;100378.88;6019890;29;20054;-94
2022/04/26 03:36:36;;;;;;;26.80;15.52;;;;;;;4.72;100.00;100498.13;6006187;29;20061;-91
2022/04/26 03:39:38;;;;;;;26.00;15.40;;;;;;;4.72;100.00;100500.69;6019983;29;20488;-91
2022/04/26 03:42:40;;;;;;;25.92;15.70;;;;;;;4.71;100.00;100505.88;6016643;29;20535;-90
2022/04/26 03:45:42;;;;;;;27.88;15.13;;;;;;;4.68;100.00;100506.06;6010558;29;20757;-91
2022/04/26 03:48:43;;;;;;;26.85;15.65;;;;;;;4.64;100.00;100510.50;6020244;29;20049;-91
2022/04/26 03:51:45;;;;;;;26.95;15.55;;;;;;;4.64;100.00;100507.94;6011493;29;20566;-91
2022/04/26 03:54:47;;;;;;;23.70;13.30;;;;;;;4.59;100.00;100507.38;6016017;29;20049;-91
2022/04/26 03:57:49;;;;;;;20.02;12.85;;;;;;;4.54;100.00;100505.03;5999184;29;20041;-90
2022/04/26 04:00:51;;;;;;;19.33;12.05;;;;;;;4.50;100.00;100503.59;6005324;29;20046;-91
2022/04/26 04:03:53;;;;;;;19.67;11.95;;;;;;;4.48;100.00;100509.69;6017679;29;20041;-91
2022/04/26 04:06:57;;;;;;;18.10;11.57;;;;;;;4.46;100.00;100504.66;6019462;29;20053;-91
2022/04/26 04:09:59;;;;;;;21.40;12.95;;;;;;;4.54;100.00;100514.47;6019892;29;20041;-91
2022/04/26 04:13:00;;;;;;;17.35;11.55;;;;;;;4.63;100.00;100518.31;6013761;29;20515;-91
2022/04/26 04:16:03;;;;;;;22.40;10.98;;;;;;;4.69;100.00;100515.38;6014687;29;20038;-91
2022/04/26 04:19:20;;;;;;;17.02;10.38;;;;;;;4.67;100.00;100514.63;5997321;29;20843;-91
2022/04/26 04:22:23;;;;;;;15.15;10.38;;;;;;;4.73;100.00;100509.19;6020038;29;20569;-91
2022/04/26 04:25:25;;;;;;;16.98;10.82;;;;;;;4.83;100.00;100512.06;6018100;29;20525;-91
2022/04/26 04:28:27;;;;;;;19.13;11.90;;;;;;;4.88;100.00;100513.47;6017039;29;20161;-91
2022/04/26 04:31:29;;;;;;;20.08;13.20;;;;;;;4.95;100.00;100512.22;5999086;29;21496;-91
2022/04/26 04:34:31;;;;;;;21.00;13.85;;;;;;;5.07;100.00;100508.16;6013140;29;20386;-91
2022/04/26 04:37:33;;;;;;;23.08;13.52;;;;;;;5.13;100.00;100510.34;6008712;29;20072;-91
2022/04/26 04:40:35;;;;;;;23.23;13.95;;;;;;;5.20;100.00;100507.47;6013860;29;20045;-91
2022/04/26 04:43:37;;;;;;;26.15;14.95;;;;;;;5.27;100.00;100512.16;6006003;29;20818;-91
2022/04/26 04:46:39;;;;;;;29.63;17.48;;;;;;;5.36;100.00;100521.88;6011437;29;20513;-91
2022/04/26 04:49:41;;;;;;;27.27;16.13;;;;;;;5.47;100.00;100520.44;6010299;29;20053;-91
2022/04/26 04:52:42;;;;;;;29.42;16.65;;;;;;;5.57;100.00;100526.69;6011487;29;20045;-91
2022/04/26 04:55:44;;;;;;;26.17;15.30;;;;;;;5.65;100.00;100527.06;6006532;29;20579;-91
2022/04/26 04:58:46;;;;;;;26.35;15.60;;;;;;;5.77;100.00;100526.34;6010400;29;21060;-91
2022/04/26 05:01:48;;;;;;;21.77;13.18;;;;;;;5.81;100.00;100527.84;6018604;29;20468;-92
2022/04/26 05:04:50;;;;;;;23.38;14.88;;;;;;;5.87;100.00;100536.09;6018328;29;20453;-91
2022/04/26 05:07:52;;;;;;;23.15;13.38;;;;;;;5.90;100.00;100536.72;6017311;29;20049;-91
2022/04/26 05:10:54;;;;;;;21.92;13.65;;;;;;;5.81;100.00;100532.97;6005627;29;21133;-91
2022/04/26 05:13:56;;;;;;;22.30;13.68;;;;;;;5.86;100.00;100544.69;6014810;29;20046;-91
2022/04/26 05:16:58;;;;;;;22.27;14.02;;;;;;;5.97;100.00;100543.19;6016529;29;20076;-91
2022/04/26 05:20:00;;;;;;;20.55;13.32;;;;;;;5.77;100.00;100544.34;6012725;29;20061;-91
2022/04/26 05:26:24;;;;;;;28.88;15.68;;;;;;;5.66;100.00;100554.41;6010938;29;20087;-91
2022/04/26 05:29:25;;;;;;;27.27;16.23;;;;;;;5.65;100.00;100552.75;6019150;29;20046;-91
2022/04/26 05:32:28;;;;;;;27.13;15.20;;;;;;;5.66;100.00;100559.53;6018734;29;20416;-91
2022/04/26 05:35:32;;;;;;;25.70;14.88;;;;;;;5.65;100.00;100563.03;6015183;29;20857;-91
2022/04/26 05:38:34;;;;;;;23.58;14.75;;;;;;;5.63;100.00;100554.56;5996864;29;20050;-91
2022/04/26 05:41:36;;;;;;;26.48;15.32;;;;;;;5.63;100.00;100558.88;6018936;29;20053;-92
2022/04/26 05:44:44;;;;;;;25.40;14.98;;;;;;;5.63;100.00;100569.97;6018577;29;20114;-91
2022/04/26 05:47:45;;;;;;;24.02;14.45;;;;;;;5.65;100.00;100572.47;6014309;29;20129;-91
2022/04/26 05:50:47;;;;;;;26.35;15.93;;;;;;;5.62;100.00;100565.78;6015465;29;20535;-91
2022/04/26 05:53:51;;;;;;;25.10;15.50;;;;;;;5.66;100.00;100562.09;6015724;29;20084;-91
2022/04/26 05:56:53;;;;;;;26.23;15.40;;;;;;;5.73;100.00;100560.00;6018034;29;20041;-92
2022/04/26 05:59:55;;;;;;;28.50;16.75;;;;;;;5.78;100.00;100555.44;6015340;29;20041;-91
2022/04/26 06:02:57;;;;;;;27.60;15.18;;;;;;;5.86;100.00;100558.38;6013274;29;20060;-91
2022/04/26 06:06:00;;;;;;;28.38;17.48;;;;;;;5.95;100.00;100559.63;6011234;29;20057;-91
2022/04/26 06:09:03;;;;;;;28.00;16.75;;;;;;;5.99;100.00;100554.22;6013924;29;20501;-91
2022/04/26 06:12:05;;;;;;;29.33;17.20;;;;;;;6.06;100.00;100553.81;6016762;29;20045;-91
2022/04/26 06:15:08;;;;;;;30.40;17.98;;;;;;;6.14;100.00;100560.19;6022843;29;20575;-91
2022/04/26 06:18:10;;;;;;;34.95;20.20;;;;;;;6.20;100.00;100561.53;6018570;29;20483;-90
2022/04/26 06:21:11;;;;;;;34.90;19.63;;;;;;;6.51;100.00;100567.38;6017615;29;20142;-91
2022/04/26 06:24:14;;;;;;;36.35;18.77;;;;;;;6.42;100.00;100568.78;6013288;29;20137;-91
2022/04/26 06:27:20;;;;;;;35.85;19.73;;;;;;;6.46;100.00;100565.13;5991964;29;20046;-91
2022/04/26 06:30:24;;;;;;;35.55;19.95;;;;;;;6.54;100.00;100565.47;6009625;29;20171;-90
2022/04/26 06:33:26;;;;;;;35.55;20.10;;;;;;;6.60;100.00;100569.41;6004825;29;20097;-90
2022/04/26 06:36:28;;;;;;;33.00;18.83;;;;;;;6.68;100.00;100575.75;6012065;29;20559;-90
2022/04/26 06:39:30;;;;;;;35.90;20.05;;;;;;;6.76;100.00;100574.41;6007439;29;20806;-91
2022/04/26 06:42:32;;;;;;;31.52;18.55;;;;;;;6.86;100.00;100583.22;6010150;29;20642;-90
2022/04/26 06:45:34;;;;;;;39.17;20.83;;;;;;;6.97;100.00;100580.78;6013030;29;20041;-91
2022/04/26 06:48:37;;;;;;;38.10;20.00;;;;;;;7.01;100.00;100584.00;6019254;29;20858;-91
2022/04/26 06:51:43;;;;;;;38.80;21.20;;;;;;;7.07;100.00;100581.03;6015420;29;20053;-90
2022/04/26 06:54:45;;;;;;;41.05;21.80;;;;;;;7.18;100.00;100580.34;6011848;29;20128;-91
2022/04/26 06:57:47;;;;;;;41.65;22.08;;;;;;;7.25;100.00;100589.34;6007494;29;20049;-91
2022/04/26 07:00:49;;;;;;;42.95;22.17;;;;;;;7.30;100.00;100587.28;6008011;29;20045;-90
2022/04/26 07:03:51;;;;;;;41.45;22.88;;;;;;;7.36;100.00;100597.22;6013133;29;20050;-90
2022/04/26 07:06:53;;;;;;;41.28;24.33;;;;;;;7.43;100.00;100595.91;5996959;29;20046;-90
2022/04/26 07:09:56;;;;;;;41.08;23.17;;;;;;;7.51;100.00;100600.53;6000849;29;20042;-90
2022/04/26 07:12:58;;;;;;;40.47;22.33;;;;;;;7.62;100.00;100595.50;6015476;29;20507;-90
2022/04/26 07:16:00;;;;;;;41.17;23.40;;;;;;;7.74;100.00;100602.44;6002941;29;21272;-91
2022/04/26 07:19:02;;;;;;;41.45;22.38;;;;;;;7.83;100.00;100600.19;6010429;29;20132;-91
2022/04/26 07:22:05;;;;;;;38.63;22.00;;;;;;;7.89;100.00;100600.59;5993111;29;20598;-90
2022/04/26 07:25:09;;;;;;;43.92;23.60;;;;;;;8.01;100.00;100600.72;6013090;29;20089;-91
2022/04/26 07:28:11;;;;;;;38.15;22.48;;;;;;;8.11;100.00;100597.41;6007152;29;20155;-90
2022/04/26 07:31:14;;;;;;;40.40;23.20;;;;;;;8.25;100.00;100601.63;6017218;29;20084;-90
2022/04/26 07:34:22;;;;;;;46.08;25.40;;;;;;;8.38;100.00;100604.19;5988613;29;20049;-91
2022/04/26 07:37:23;;;;;;;49.08;25.17;;;;;;;8.54;100.00;100601.41;5992495;29;20105;-91
2022/04/26 07:40:31;;;;;;;45.53;25.15;;;;;;;8.72;100.00;100602.72;6002808;29;20129;-91
2022/04/26 07:43:34;;;;;;;43.42;23.48;;;;;;;8.95;100.00;100597.69;6010327;29;20064;-91
2022/04/26 07:46:37;;;;;;;48.88;24.50;;;;;;;9.16;100.00;100598.72;6011717;29;20800;-92
2022/04/26 07:49:40;;;;;;;49.38;24.25;;;;;;;9.43;100.00;100600.25;6012277;29;20041;-91
2022/04/26 07:52:42;;;;;;;43.47;24.20;;;;;;;9.67;100.00;100593.28;6004770;29;20045;-92
2022/04/26 07:55:44;;;;;;;41.33;22.42;;;;;;;9.85;100.00;100595.44;6008644;29;20135;-91
2022/04/26 07:58:46;;;;;;;44.63;23.38;;;;;;;10.14;100.00;100596.66;6009429;29;20040;-91
2022/04/26 08:01:47;;;;;;;37.88;21.60;;;;;;;10.57;100.00;100608.09;6001212;29;20065;-92
2022/04/26 08:04:50;;;;;;;38.60;21.35;;;;;;;10.87;100.00;100607.44;6012240;29;20522;-91
2022/04/26 08:07:51;;;;;;;38.17;20.88;;;;;;;11.13;100.00;100609.72;5991945;29;20053;-91
2022/04/26 08:10:56;;;;;;;30.27;19.48;;;;;;;11.34;100.00;100608.00;6015190;29;20132;-90
2022/04/26 08:13:57;;;;;;;37.22;20.85;;;;;;;11.56;100.00;100617.47;6009381;29;20482;-90
2022/04/26 08:17:00;;;;;;;33.30;19.17;;;;;;;11.49;100.00;100616.31;5996087;29;20046;-91
2022/04/26 08:20:03;;;;;;;30.17;18.15;;;;;;;11.49;100.00;100624.09;5999744;29;20072;-90
2022/04/26 08:23:06;;;;;;;33.38;18.13;;;;;;;11.43;100.00;100617.66;6015770;29;20042;-90
2022/04/26 08:29:28;;;;;;;30.67;18.48;;;;;;;11.59;100.00;100632.75;6005173;29;20038;-90
2022/04/26 08:32:57;;;;;;;28.20;16.38;;;;;;;11.87;100.00;100632.31;6017388;29;20087;-91
2022/04/26 08:35:59;;;;;;;29.05;17.00;;;;;;;11.93;100.00;100632.63;6021922;29;20058;-90
2022/04/26 08:39:06;;;;;;;32.75;20.00;;;;;;;12.03;100.00;100635.28;6020337;29;20049;-90
2022/04/26 08:42:07;;;;;;;33.35;19.02;;;;;;;12.01;100.00;100635.41;6016821;29;20045;-91
2022/04/26 08:45:21;;;;;;;31.38;19.30;;;;;;;12.16;100.00;100629.88;6012125;29;20057;-90
2022/04/26 08:51:44;;;;;;;39.58;21.83;;;;;;;12.47;100.00;100638.47;6019926;29;20057;-88
2022/04/26 08:54:45;;;;;;;38.20;22.17;;;;;;;12.43;100.00;100644.91;6015441;29;20076;-87
2022/04/26 08:57:48;;;;;;;34.33;20.75;;;;;;;12.45;100.00;100648.19;6011836;29;20076;-88
2022/04/26 09:01:13;;;;;;;30.45;19.17;;;;;;;12.85;100.00;100647.38;5999321;29;20064;-88
2022/04/26 09:04:17;;;;;;;33.20;20.00;;;;;;;13.04;100.00;100657.81;5987586;29;20045;-87
2022/04/26 09:07:32;;;;;;;33.67;19.17;;;;;;;13.20;100.00;100646.88;6004041;29;20049;-87
2022/04/26 09:10:33;;;;;;;25.50;16.65;;;;;;;13.38;96.05;100651.44;6000433;29;20049;-88
2022/04/26 09:13:40;;;;;;;28.35;18.10;;;;;;;13.49;96.28;100656.50;6015732;29;20046;-88
2022/04/26 09:16:42;;;;;;;27.13;16.90;;;;;;;13.39;96.47;100653.91;6000600;29;20060;-89
2022/04/26 09:19:49;;;;;;;27.83;18.13;;;;;;;13.15;97.51;100649.88;6006482;29;20041;-87
2022/04/26 09:23:03;;;;;;;26.95;17.35;;;;;;;12.87;100.00;100651.47;5999614;29;20049;-87
2022/04/26 09:26:08;;;;;;;24.95;15.95;;;;;;;12.79;100.00;100646.09;6020605;29;20045;-87
2022/04/26 09:29:18;;;;;;;23.90;16.10;;;;;;;12.83;100.00;100650.09;6014877;29;20041;-87
2022/04/26 09:32:20;;;;;;;29.10;17.37;;;;;;;12.88;100.00;100653.13;6013656;29;20832;-87
2022/04/26 09:35:28;;;;;;;26.98;16.15;;;;;;;12.95;99.58;100653.41;6020766;29;20367;-87
2022/04/26 09:38:33;;;;;;;26.38;16.75;;;;;;;12.95;97.36;100657.78;6017710;29;20428;-87
2022/04/26 09:41:35;;;;;;;26.05;17.20;;;;;;;12.93;98.63;100650.13;6019437;29;20283;-89
2022/04/26 09:44:40;;;;;;;22.85;16.25;;;;;;;13.05;96.71;100654.25;6012297;29;20951;-89
2022/04/26 09:47:45;;;;;;;24.50;16.25;;;;;;;13.11;96.20;100658.91;6009739;29;20049;-87
2022/04/26 09:50:47;;;;;;;23.98;15.40;;;;;;;13.22;95.06;100670.16;5996146;29;20130;-87
2022/04/26 09:53:48;;;;;;;26.52;16.52;;;;;;;13.29;94.50;100672.09;6009468;29;20237;-87
2022/04/26 09:56:51;;;;;;;23.50;16.75;;;;;;;13.38;95.58;100669.66;6008551;29;20052;-87
2022/04/26 09:59:53;;;;;;;26.92;17.63;;;;;;;13.47;96.24;100668.84;6007683;29;20859;-87
2022/04/26 10:03:01;;;;;;;29.20;17.95;;;;;;;13.66;95.05;100670.59;6013166;29;20120;-87
2022/04/26 10:06:05;;;;;;;27.35;17.27;;;;;;;13.75;96.29;100681.00;6008773;29;20046;-87
2022/04/26 10:09:08;;;;;;;25.35;17.27;;;;;;;13.94;93.11;100668.94;6018907;29;20037;-87
2022/04/26 10:12:11;;;;;;;26.45;16.15;;;;;;;14.02;92.96;100670.84;6014036;29;20099;-87
2022/04/26 10:15:14;;;;;;;24.95;17.35;;;;;;;14.09;93.43;100675.34;6014308;29;20492;-87
2022/04/26 10:18:34;;;;;;;24.42;16.73;;;;;;;14.13;92.18;100681.09;6007662;29;20080;-87
2022/04/26 10:21:38;;;;;;;25.15;16.45;;;;;;;14.13;93.14;100681.09;6010369;29;21557;-87
2022/04/26 10:24:40;;;;;;;25.48;16.05;;;;;;;14.23;92.04;100676.66;6010576;29;20159;-87
2022/04/26 10:27:42;;;;;;;22.50;14.57;;;;;;;14.23;90.69;100674.06;6008789;29;20041;-87
2022/04/26 10:30:57;;;;;;;20.45;14.38;;;;;;;14.26;90.71;100671.22;6010486;29;20132;-87
2022/04/26 10:33:59;;;;;;;20.35;14.30;;;;;;;14.37;87.54;100676.22;6010682;29;20413;-87
2022/04/26 10:37:21;;;;;;;21.13;14.20;;;;;;;14.54;86.29;100673.88;6013785;29;21268;-87
2022/04/26 10:40:24;;;;;;;17.65;12.32;;;;;;;14.67;83.20;100676.97;5992305;29;20472;-87
2022/04/26 10:43:26;;;;;;;17.13;12.23;;;;;;;14.78;81.44;100670.75;5997239;29;20052;-87
2022/04/26 10:46:28;;;;;;;18.25;11.98;;;;;;;14.89;81.11;100672.34;6011967;29;20045;-87
2022/04/26 10:49:38;;;;;;;20.15;12.90;;;;;;;14.96;84.76;100676.84;6013849;29;20037;-87
2022/04/26 10:52:41;;;;;;;18.42;14.13;;;;;;;14.99;85.14;100679.13;6013698;29;20068;-87
2022/04/26 10:55:43;;;;;;;19.05;13.05;;;;;;;14.97;85.33;100682.84;6004740;29;20045;-87
2022/04/26 10:58:52;;;;;;;14.10;9.98;;;;;;;15.12;77.49;100684.00;5991838;29;20045;-88
2022/04/26 11:01:55;;;;;;;12.75;10.13;;;;;;;15.00;75.09;100685.16;6013557;29;20489;-87
2022/04/26 11:04:59;;;;;;;15.95;9.88;;;;;;;14.82;77.07;100690.34;6012997;29;20136;-87
2022/04/26 11:08:04;;;;;;;12.13;9.15;;;;;;;14.80;78.14;100693.09;6012653;29;20054;-87
2022/04/26 11:11:10;;;;;;;13.00;9.77;;;;;;;14.76;76.90;100694.34;6013579;29;20045;-87
2022/04/26 11:14:13;;;;;;;11.13;8.93;;;;;;;14.83;75.83;100691.97;6013331;29;20057;-87
2022/04/26 11:17:16;;;;;;;13.60;8.75;;;;;;;14.86;76.95;100694.31;6011795;29;20143;-87
2022/04/26 11:20:25;;;;;;;13.85;9.00;;;;;;;14.84;77.53;100693.63;6016849;29;20049;-86
2022/04/26 11:30:32;;;;;;;11.10;8.32;;;;;;;14.76;75.45;100694.34;6007208;29;20052;-86
2022/04/26 11:33:48;;;;;;;9.95;8.02;;;;;;;14.79;74.15;100699.28;6011366;29;20134;-87
2022/04/26 11:36:52;;;;;;;8.48;6.40;;;;;;;15.02;73.74;100699.69;6007918;29;20049;-87
2022/04/26 11:39:54;;;;;;;10.02;6.95;;;;;;;15.12;72.94;100694.44;6003900;29;20049;-87
2022/04/26 11:42:58;;;;;;;8.50;6.68;;;;;;;15.11;68.82;100687.59;6009752;29;20589;-87
2022/04/26 11:46:01;;;;;;;10.73;7.53;;;;;;;15.24;69.70;100693.25;5994743;29;20046;-86
2022/04/26 11:49:04;;;;;;;11.35;7.72;;;;;;;15.45;66.85;100702.59;6004037;29;20053;-86
2022/04/26 11:52:06;;;;;;;10.98;7.25;;;;;;;15.68;66.93;100697.75;6000674;29;20060;-86
2022/04/26 11:55:21;;;;;;;10.63;7.90;;;;;;;16.10;64.98;100700.56;5993482;29;20469;-87
2022/04/26 11:58:26;;;;;;;8.60;7.32;;;;;;;16.55;62.34;100702.13;6006298;29;20412;-86
2022/04/26 12:01:28;;;;;;;10.20;7.15;;;;;;;17.04;59.54;100698.91;6009241;29;20072;-87
2022/04/26 12:04:30;;;;;;;9.30;6.43;;;;;;;17.34;55.98;100704.53;6013173;29;20554;-87
2022/04/26 12:07:32;;;;;;;9.23;6.88;;;;;;;17.85;56.67;100702.66;6012421;29;20049;-86
2022/04/26 12:10:34;;;;;;;10.63;7.43;;;;;;;17.92;56.27;100702.81;6006106;29;20539;-87
2022/04/26 12:13:36;;;;;;;10.68;7.07;;;;;;;18.06;55.14;100702.13;6011965;29;20053;-86
2022/04/26 12:16:49;;;;;;;9.85;7.68;;;;;;;18.26;55.41;100697.34;6006425;29;20125;-86
2022/04/26 12:19:51;;;;;;;12.43;7.72;;;;;;;18.43;55.95;100696.34;6014052;29;20038;-86
2022/04/26 12:22:53;;;;;;;10.40;8.30;;;;;;;18.21;55.17;100692.63;6009857;29;20168;-87
2022/04/26 12:26:04;;;;;;;9.13;7.20;;;;;;;17.95;55.35;100692.00;6017669;29;20049;-86
2022/04/26 12:29:13;;;;;;;10.82;8.18;;;;;;;17.82;55.76;100695.13;6012716;29;20045;-86
2022/04/26 12:32:26;;;;;;;12.73;8.18;;;;;;;17.39;57.64;100694.41;6016915;29;20164;-86
2022/04/26 12:35:28;;;;;;;11.05;8.45;;;;;;;17.43;58.36;100691.31;6022717;29;20046;-86
2022/04/26 12:38:45;;;;;;;13.30;8.27;;;;;;;17.57;56.96;100691.66;6004022;29;20090;-87
2022/04/26 12:41:51;;;;;;;10.75;7.97;;;;;;;17.52;57.85;100699.19;6020161;29;20605;-86
2022/04/26 12:45:00;;;;;;;12.13;8.02;;;;;;;17.42;56.37;100694.91;6009308;29;20078;-87
2022/04/26 12:51:30;;;;;;;12.35;6.70;;;;;;;18.56;52.81;100689.72;6014888;29;20721;-86
2022/04/26 12:54:32;;;;;;;7.57;5.70;;;;;;;19.35;50.22;100687.88;6010924;29;20052;-86
2022/04/26 12:57:47;;;;;;;7.53;6.00;;;;;;;19.92;48.16;100690.06;6014798;29;20045;-86
2022/04/26 13:00:50;;;;;;;7.95;5.15;;;;;;;20.43;46.51;100690.22;6009041;29;20038;-86
2022/04/26 13:03:52;;;;;;;5.18;3.88;;;;;;;20.99;41.44;100692.38;6015289;29;20085;-86
2022/04/26 13:06:54;;;;;;;4.65;4.22;;;;;;;21.24;43.56;100692.00;6008903;29;20070;-86
2022/04/26 13:10:13;;;;;;;5.10;4.07;;;;;;;21.26;41.23;100690.81;5997734;29;20041;-86
2022/04/26 13:13:15;;;;;;;6.82;5.22;;;;;;;21.26;43.18;100690.00;5989729;29;20189;-86
2022/04/26 13:16:17;;;;;;;6.25;4.78;;;;;;;21.75;41.43;100699.81;6013241;29;20836;-86
2022/04/26 13:19:19;;;;;;;6.32;5.18;;;;;;;21.84;41.25;100705.78;6007345;29;20538;-86
2022/04/26 13:22:22;;;;;;;5.50;4.97;;;;;;;21.28;45.79;100699.34;6017075;29;20570;-86
2022/04/26 13:25:25;;;;;;;7.20;6.47;;;;;;;20.42;45.18;100703.53;6011118;29;20546;-86
2022/04/26 13:28:28;;;;;;;8.27;6.78;;;;;;;19.35;45.77;100704.47;6010259;29;20543;-85
2022/04/26 13:31:31;;;;;;;6.60;5.32;;;;;;;18.35;50.15;100719.94;5989808;29;20056;-86
2022/04/26 13:34:33;;;;;;;9.02;5.18;;;;;;;17.55;52.12;100707.50;6001842;29;20044;-86
2022/04/26 13:37:46;;;;;;;8.93;5.07;;;;;;;16.96;56.92;100717.19;6004118;29;20030;-86
2022/04/26 13:40:48;;;;;;;5.55;4.65;;;;;;;16.49;57.25;100715.78;5996558;29;20070;-86
2022/04/26 13:43:51;;;;;;;7.13;5.15;;;;;;;16.12;60.77;100719.50;6005548;29;20056;-86
2022/04/26 13:46:53;;;;;;;5.57;4.90;;;;;;;15.94;61.53;100714.28;6006236;29;20046;-86
2022/04/26 13:49:56;;;;;;;6.57;5.05;;;;;;;15.85;62.64;100717.00;5992292;29;20038;-86
2022/04/26 13:52:58;;;;;;;8.55;5.15;;;;;;;15.79;63.34;100713.19;6005243;29;20057;-88
2022/04/26 13:56:00;;;;;;;6.65;4.63;;;;;;;15.73;61.73;100718.22;6001976;29;20880;-86
2022/04/26 13:59:02;;;;;;;5.63;4.68;;;;;;;15.82;63.37;100723.34;6014690;29;20543;-86
2022/04/26 14:02:06;;;;;;;6.20;4.95;;;;;;;15.90;60.41;100709.56;6001371;29;20066;-86
2022/04/26 14:05:08;;;;;;;7.53;4.53;;;;;;;15.94;59.64;100719.50;6013276;29;20041;-86
2022/04/26 14:08:12;;;;;;;7.72;4.55;;;;;;;16.01;60.22;100722.34;6007835;29;20061;-86
2022/04/26 14:11:14;;;;;;;5.80;4.60;;;;;;;16.08;63.74;100722.56;6003427;29;20045;-86
2022/04/26 14:24:18;;;;;;;5.65;4.90;;;;;;;16.52;57.82;100720.72;6002861;29;20397;-86
2022/04/26 14:27:20;;;;;;;5.57;4.20;;;;;;;16.54;58.64;100716.16;5988882;29;20644;-87
2022/04/26 14:30:22;;;;;;;6.47;4.32;;;;;;;16.52;59.94;100715.50;5993276;29;20048;-86
2022/04/26 14:33:43;;;;;;;5.30;3.95;;;;;;;16.58;58.39;100725.31;6008615;29;20128;-86
2022/04/26 14:36:45;;;;;;;6.25;3.83;;;;;;;16.46;57.89;100721.34;5985268;29;20060;-86
2022/04/26 14:39:56;;;;;;;6.95;4.50;;;;;;;16.27;61.75;100727.59;6004964;29;20515;-86
2022/04/26 14:42:58;;;;;;;5.13;4.20;;;;;;;16.08;62.79;100723.38;6010414;29;20565;-86
2022/04/26 14:46:00;;;;;;;5.65;3.85;;;;;;;15.96;62.30;100722.00;6005976;29;20056;-86
2022/04/26 14:49:07;;;;;;;5.20;3.67;;;;;;;15.82;64.78;100727.75;6017358;29;20903;-86
2022/04/26 14:52:13;;;;;;;6.07;3.35;;;;;;;15.70;61.66;100725.38;5986537;29;20052;-86
2022/04/26 14:55:31;;;;;;;4.10;3.30;;;;;;;15.65;63.31;100730.19;6013031;29;20396;-86
2022/04/26 14:58:34;;;;;;;3.75;3.30;;;;;;;15.59;61.15;100728.16;6012943;29;20116;-87
2022/04/26 15:01:36;;;;;;;4.60;3.53;;;;;;;15.52;62.61;100721.88;6002557;29;20056;-87
2022/04/26 15:04:40;;;;;;;6.18;3.95;;;;;;;15.40;61.70;100726.53;5993368;29;20046;-87
2022/04/26 15:11:02;;;;;;;;;;;;;;;15.28;68.75;100731.13;6009252;29;20042;-87
2022/04/26 15:17:25;;;;;;;4.18;3.78;;;;;;;15.33;67.69;100733.28;5998037;29;20177;-87
2022/04/26 15:20:27;;;;;;;4.60;3.60;;;;;;;15.33;67.44;100733.28;6013061;29;20041;-88
2022/04/26 15:23:29;;;;;;;6.57;4.35;;;;;;;15.35;67.21;100733.94;6004640;29;20053;-87
2022/04/26 15:26:31;;;;;;;4.22;3.63;;;;;;;15.41;65.08;100735.97;6007603;29;20156;-86
2022/04/26 15:29:33;;;;;;;5.80;3.70;;;;;;;15.43;63.98;100735.84;6007364;29;20516;-86
2022/04/26 15:32:36;;;;;;;4.25;3.83;;;;;;;15.46;61.76;100740.75;5992583;29;20094;-86
2022/04/26 15:35:38;;;;;;;7.05;3.88;;;;;;;15.43;61.64;100743.66;6003093;29;20393;-85
2022/04/26 15:38:42;;;;;;;3.97;3.58;;;;;;;15.30;61.15;100746.59;5999864;29;20189;-86
2022/04/26 15:41:43;;;;;;;8.18;5.18;;;;;;;15.18;61.49;100748.63;5996202;29;20038;-86
2022/04/26 15:44:46;;;;;;;6.47;5.05;;;;;;;15.03;63.00;100743.06;6006858;29;20406;-86
2022/04/26 15:47:47;;;;;;;6.70;5.10;;;;;;;14.73;65.82;100749.38;5976283;29;20657;-86
2022/04/26 15:50:50;;;;;;;6.72;4.40;;;;;;;14.63;66.38;100748.56;6000359;29;20269;-85
2022/04/26 15:53:51;;;;;;;6.45;4.65;;;;;;;14.50;66.70;100748.03;6003000;29;20222;-85
2022/04/26 15:56:54;;;;;;;6.78;4.95;;;;;;;14.31;68.20;100748.88;5982461;29;20050;-85
2022/04/26 15:59:55;;;;;;;5.97;5.10;;;;;;;14.11;69.11;100755.91;6005605;29;20062;-85
2022/04/26 16:02:57;;;;;;;7.47;4.90;;;;;;;14.03;70.25;100748.78;6000606;29;20050;-86
2022/04/26 16:05:59;;;;;;;6.55;4.82;;;;;;;13.95;73.75;100746.88;5988543;29;20080;-85
2022/04/26 16:22:22;;;;;;;7.25;5.40;;;;;;;13.41;81.69;100757.78;5998273;29;20034;-85
2022/04/26 16:25:25;;;;;;;8.05;5.88;;;;;;;13.34;81.08;100752.28;5989678;29;20057;-85
2022/04/26 16:28:28;;;;;;;6.32;5.10;;;;;;;13.25;81.42;100751.28;6011073;29;20053;-85
2022/04/26 16:31:30;;;;;;;6.80;5.57;;;;;;;13.23;82.98;100752.38;6005579;29;20575;-85
2022/04/26 16:34:32;;;;;;;9.25;6.05;;;;;;;13.20;83.66;100752.66;5979685;29;20083;-85
2022/04/26 16:37:35;;;;;;;6.68;5.38;;;;;;;13.14;85.41;100759.16;5986976;29;20046;-85
2022/04/26 16:40:36;;;;;;;9.07;5.50;;;;;;;13.12;84.79;100764.53;6001083;29;20046;-86
2022/04/26 16:43:39;;;;;;;9.20;6.38;;;;;;;13.08;85.74;100768.31;6002744;29;20056;-85
2022/04/26 16:46:40;;;;;;;7.70;5.95;;;;;;;13.06;84.31;100766.81;5990789;29;20053;-85
2022/04/26 16:49:42;;;;;;;6.60;5.70;;;;;;;13.00;84.93;100767.34;6005775;29;20455;-85
2022/04/26 16:52:46;;;;;;;7.35;5.95;;;;;;;12.93;86.53;100764.44;6004399;29;20045;-85
2022/04/26 16:55:48;;;;;;;7.63;5.85;;;;;;;13.04;83.70;100766.13;6003211;29;20099;-85
2022/04/26 16:58:50;;;;;;;7.28;5.28;;;;;;;12.97;82.91;100770.19;5991718;29;20551;-85
2022/04/26 17:01:51;;;;;;;7.95;5.50;;;;;;;12.89;83.82;100770.84;6005551;29;20046;-86
2022/04/26 17:04:54;;;;;;;7.90;5.78;;;;;;;12.80;85.92;100769.03;5997277;29;20052;-86
2022/04/26 17:07:56;;;;;;;8.90;6.32;;;;;;;12.76;87.06;100765.06;6004483;29;20083;-85
2022/04/26 17:14:20;;;;;;;9.10;6.38;;;;;;;12.83;88.38;100776.56;5996389;29;20202;-86
2022/04/26 17:17:22;;;;;;;7.07;5.78;;;;;;;13.05;86.93;100776.38;6005669;29;20072;-86
2022/04/26 17:20:24;;;;;;;6.95;5.72;;;;;;;13.03;85.51;100775.69;6006968;29;20077;-86
2022/04/26 17:23:26;;;;;;;7.60;6.05;;;;;;;12.91;86.99;100777.56;5985288;29;20046;-85
2022/04/26 17:26:28;;;;;;;7.10;6.22;;;;;;;12.82;87.15;100780.94;5997587;29;20049;-85
2022/04/26 17:29:30;;;;;;;10.32;6.32;;;;;;;12.73;87.37;100789.50;6001864;29;20083;-85
2022/04/26 17:32:32;;;;;;;7.93;5.90;;;;;;;12.75;88.28;100799.78;5988631;29;20068;-86
2022/04/26 17:35:34;;;;;;;7.18;5.40;;;;;;;12.80;88.59;100795.84;6003579;29;20042;-85
2022/04/26 17:38:38;;;;;;;8.90;5.97;;;;;;;12.57;93.45;100802.13;5993466;29;20477;-85
2022/04/26 17:41:41;;;;;;;9.27;7.28;;;;;;;12.56;93.14;100803.91;6010600;29;20046;-85
2022/04/26 17:44:44;;;;;;;9.68;6.38;;;;;;;12.43;94.65;100808.47;6000628;29;20613;-85
2022/04/26 17:47:46;;;;;;;12.80;7.00;;;;;;;12.24;96.85;100809.94;6016789;29;20049;-85
2022/04/26 17:50:48;;;;;;;8.43;6.38;;;;;;;12.10;98.60;100809.41;6005173;29;20057;-85
2022/04/26 17:57:11;;;;;;;6.70;5.97;;;;;;;11.95;99.52;100821.84;5996551;29;20124;-85
2022/04/26 18:00:14;;;;;;;7.28;5.85;;;;;;;11.91;100.00;100823.06;6000715;29;20479;-85
2022/04/26 18:03:16;;;;;;;8.50;7.00;;;;;;;11.88;100.00;100828.50;5998986;29;20788;-85
2022/04/26 18:06:18;;;;;;;7.97;5.90;;;;;;;11.85;100.00;100834.72;6001361;29;20053;-85
2022/04/26 18:09:20;;;;;;;9.88;6.22;;;;;;;11.83;100.00;100836.63;5997805;29;20073;-85
2022/04/26 18:12:22;;;;;;;10.40;6.10;;;;;;;11.76;100.00;100854.41;6015199;29;20120;-85
2022/04/26 18:15:25;;;;;;;9.40;6.03;;;;;;;11.73;100.00;100854.66;6002445;29;20180;-86
2022/04/26 18:18:27;;;;;;;12.70;6.72;;;;;;;11.90;100.00;100850.78;6013417;29;20416;-85
2022/04/26 18:21:29;;;;;;;8.50;6.60;;;;;;;11.77;100.00;100866.44;6016095;29;20046;-85
2022/04/26 18:24:31;;;;;;;8.00;6.50;;;;;;;11.59;100.00;100867.88;5973548;29;20049;-85
2022/04/26 18:27:34;;;;;;;9.15;6.30;;;;;;;11.56;100.00;100875.91;5998041;29;20620;-85
2022/04/26 18:30:36;;;;;;;8.25;6.32;;;;;;;11.46;100.00;100883.56;6001940;29;20064;-85